Time;durP1;ratioP1;P1;durP2;ratioP2;P2;SDS_P1;SDS_P2;PMS_P1;PMS_P2;Temp;Humidity;BMP_temperature;BMP_pressure;BME280_temperature;BME280_humidity;BME280_pressure;Samples;Min_cycle;Max_cycle;Signal;HPM_P1;HPM_P2
2022/04/30 00:02:06;;;;;;;9.02;8.23;;;;;;;14.68;64.22;95453.81;5062986;28;20304;-74
2022/04/30 00:04:34;;;;;;;9.02;8.13;;;;;;;14.63;64.07;95454.00;5064247;28;20202;-74
2022/04/30 00:07:01;;;;;;;8.52;7.82;;;;;;;14.74;63.77;95450.16;5064246;28;20760;-74
2022/04/30 00:09:27;;;;;;;8.75;7.97;;;;;;;14.87;63.26;95452.09;5063843;28;20692;-76
2022/04/30 00:11:56;;;;;;;8.73;7.85;;;;;;;14.72;63.76;95447.66;5063032;28;20297;-74
2022/04/30 00:14:22;;;;;;;10.02;9.00;;;;;;;14.56;64.48;95446.69;5062461;28;20665;-75
2022/04/30 00:16:50;;;;;;;11.43;7.90;;;;;;;14.82;64.18;95443.81;5063683;28;20677;-74
2022/04/30 00:19:17;;;;;;;9.13;7.75;;;;;;;14.93;62.86;95444.16;5062993;28;20197;-76
2022/04/30 00:21:44;;;;;;;8.50;7.72;;;;;;;14.85;63.07;95443.66;5064138;28;20212;-74
2022/04/30 00:24:11;;;;;;;9.55;8.82;;;;;;;15.03;62.25;95448.88;5062568;28;20255;-73
2022/04/30 00:26:38;;;;;;;8.00;7.40;;;;;;;15.00;61.87;95454.13;5062271;28;20257;-72
2022/04/30 00:29:07;;;;;;;8.30;7.60;;;;;;;14.85;62.40;95440.28;5063259;28;20201;-73
2022/04/30 00:31:34;;;;;;;7.95;7.38;;;;;;;14.69;63.20;95442.69;5063800;28;20190;-73
2022/04/30 00:34:01;;;;;;;8.02;7.10;;;;;;;14.72;63.36;95449.38;5062826;28;20621;-73
2022/04/30 00:36:28;;;;;;;8.35;7.63;;;;;;;14.63;63.29;95450.59;5064710;28;20262;-73
2022/04/30 00:38:55;;;;;;;8.48;7.75;;;;;;;14.16;64.60;95445.75;5063100;28;20751;-72
2022/04/30 00:41:23;;;;;;;8.05;7.25;;;;;;;13.98;64.88;95428.63;5064156;28;20450;-72
2022/04/30 00:43:51;;;;;;;8.50;7.43;;;;;;;14.28;64.12;95452.94;5062284;28;20217;-73
2022/04/30 00:46:21;;;;;;;8.85;7.18;;;;;;;14.22;63.92;95449.78;5063395;28;20267;-72
2022/04/30 00:48:48;;;;;;;6.95;6.35;;;;;;;14.36;63.74;95449.19;5063719;28;20213;-73
2022/04/30 00:51:18;;;;;;;6.85;6.35;;;;;;;14.43;63.07;95448.09;5063872;28;20197;-73
2022/04/30 00:53:47;;;;;;;7.80;6.22;;;;;;;14.40;62.97;95454.13;5064179;28;20202;-73
2022/04/30 00:56:15;;;;;;;8.00;7.30;;;;;;;14.02;63.93;95427.63;5063638;28;20302;-73
2022/04/30 00:58:44;;;;;;;7.32;6.72;;;;;;;14.02;64.46;95439.56;5061968;28;20202;-73
2022/04/30 01:01:12;;;;;;;7.03;6.53;;;;;;;13.90;64.54;95430.66;5063463;28;20210;-73
2022/04/30 01:03:40;;;;;;;7.40;6.78;;;;;;;13.63;66.08;95428.31;5063532;28;20208;-74
2022/04/30 01:06:07;;;;;;;7.50;6.43;;;;;;;13.70;65.70;95433.19;5062997;28;20650;-74
2022/04/30 01:08:36;;;;;;;7.25;6.72;;;;;;;13.65;66.23;95433.34;5062942;28;20206;-73
2022/04/30 01:11:05;;;;;;;6.78;6.25;;;;;;;13.73;65.44;95433.91;5063263;28;20193;-73
2022/04/30 01:13:35;;;;;;;7.05;6.55;;;;;;;13.81;65.65;95433.59;5062491;28;20714;-73
2022/04/30 01:16:03;;;;;;;6.68;6.07;;;;;;;13.92;64.90;95429.69;5062864;28;20237;-73
2022/04/30 01:18:30;;;;;;;7.72;7.22;;;;;;;13.99;64.95;95434.56;5063207;28;20198;-73
2022/04/30 01:21:03;;;;;;;7.03;6.43;;;;;;;14.03;64.91;95436.09;5063836;28;20202;-73
2022/04/30 01:23:33;;;;;;;8.00;7.20;;;;;;;13.80;65.40;95434.50;5062341;28;20225;-73
2022/04/30 01:26:01;;;;;;;7.60;6.95;;;;;;;13.69;66.36;95431.53;5063273;28;20236;-73
2022/04/30 01:28:29;;;;;;;7.60;7.00;;;;;;;13.85;66.24;95432.59;5062206;28;20233;-74
2022/04/30 01:30:56;;;;;;;7.15;6.47;;;;;;;14.01;65.06;95437.91;5061156;28;20271;-74
2022/04/30 01:38:58;;;;;;;6.95;6.35;;;;;;;13.42;67.66;95433.44;5061971;28;20602;-73
2022/04/30 01:41:24;;;;;;;9.85;7.80;;;;;;;13.56;67.59;95431.19;5062271;28;20255;-74
2022/04/30 01:43:51;;;;;;;8.00;7.30;;;;;;;13.28;68.37;95436.53;5061701;28;20286;-72
2022/04/30 01:46:18;;;;;;;8.40;7.60;;;;;;;12.93;69.72;95430.97;5063659;28;20205;-72
2022/04/30 01:48:46;;;;;;;8.27;7.68;;;;;;;12.99;69.52;95431.66;5061893;28;20209;-74
2022/04/30 01:51:13;;;;;;;8.05;7.20;;;;;;;12.85;70.23;95438.09;5061851;28;20202;-72
2022/04/30 01:53:40;;;;;;;7.97;7.28;;;;;;;13.13;69.33;95435.34;5061217;28;20218;-75
2022/04/30 01:56:08;;;;;;;8.07;7.38;;;;;;;13.30;68.84;95432.19;5061037;28;20336;-74
2022/04/30 01:58:35;;;;;;;8.75;7.95;;;;;;;13.22;68.94;95431.66;5062392;28;20205;-74
2022/04/30 02:01:02;;;;;;;7.28;6.65;;;;;;;13.17;69.19;95433.53;5062729;28;20225;-73
2022/04/30 02:03:29;;;;;;;8.52;7.90;;;;;;;13.13;68.81;95430.22;5060969;28;20221;-72
2022/04/30 02:05:56;;;;;;;9.15;8.35;;;;;;;13.03;69.33;95435.75;5061548;28;20216;-74
2022/04/30 02:08:24;;;;;;;7.85;7.10;;;;;;;13.11;69.69;95433.75;5061467;28;20194;-73
2022/04/30 02:10:51;;;;;;;7.32;6.72;;;;;;;13.25;68.99;95431.53;5062116;28;20201;-73
2022/04/30 02:13:24;;;;;;;7.68;6.88;;;;;;;13.26;69.18;95433.19;5060962;28;20201;-73
2022/04/30 02:15:53;;;;;;;8.13;7.43;;;;;;;13.21;68.90;95435.09;5061080;28;20257;-73
2022/04/30 02:18:21;;;;;;;9.13;8.32;;;;;;;13.45;66.91;95430.75;5062222;28;20209;-73
2022/04/30 02:20:51;;;;;;;9.63;8.73;;;;;;;13.44;67.63;95422.28;5062231;28;20209;-73
2022/04/30 02:23:20;;;;;;;8.50;7.80;;;;;;;13.41;67.32;95422.38;5060284;28;20256;-73
2022/04/30 02:25:50;;;;;;;9.18;8.23;;;;;;;13.48;67.46;95423.81;5062894;28;20219;-73
2022/04/30 02:28:18;;;;;;;9.07;8.30;;;;;;;13.16;68.46;95426.75;5061429;28;20210;-76
2022/04/30 02:30:45;;;;;;;9.25;8.45;;;;;;;12.86;69.57;95428.72;5061624;28;20221;-73
2022/04/30 02:33:16;;;;;;;11.10;8.45;;;;;;;12.50;71.97;95423.22;5060895;28;20194;-76
2022/04/30 02:35:44;;;;;;;10.27;9.15;;;;;;;12.38;72.92;95428.72;5061532;28;20356;-74
2022/04/30 02:38:11;;;;;;;8.77;7.97;;;;;;;12.25;72.74;95396.03;5061388;28;20280;-73
2022/04/30 02:40:39;;;;;;;9.07;8.18;;;;;;;12.89;71.04;95426.88;5062354;28;20230;-73
2022/04/30 02:43:07;;;;;;;9.43;8.48;;;;;;;12.88;71.28;95422.66;5060607;28;20201;-73
2022/04/30 02:45:37;;;;;;;9.27;7.97;;;;;;;12.92;70.75;95424.22;5060391;28;20288;-74
2022/04/30 02:48:06;;;;;;;13.07;9.45;;;;;;;12.78;71.21;95415.41;5061252;28;20295;-73
2022/04/30 02:50:34;;;;;;;9.95;9.00;;;;;;;12.95;70.62;95424.09;5061965;28;20866;-73
2022/04/30 02:53:01;;;;;;;10.40;8.55;;;;;;;13.08;70.28;95418.56;5060831;28;20213;-73
2022/04/30 02:55:28;;;;;;;11.05;8.35;;;;;;;13.00;70.50;95426.50;5061091;28;21258;-74
2022/04/30 03:00:43;;;;;;;9.23;8.43;;;;;;;12.77;71.22;95418.84;5061263;28;20213;-73
2022/04/30 03:03:12;;;;;;;12.60;9.07;;;;;;;12.87;71.05;95427.81;5060281;28;20948;-73
2022/04/30 03:05:43;;;;;;;10.52;9.43;;;;;;;12.94;70.40;95411.41;5061524;28;20574;-73
2022/04/30 03:08:12;;;;;;;18.67;9.35;;;;;;;12.74;71.30;95404.50;5060618;28;20213;-74
2022/04/30 03:10:39;;;;;;;9.70;8.60;;;;;;;12.44;71.82;95396.22;5061083;28;20203;-74
2022/04/30 03:13:06;;;;;;;10.32;9.32;;;;;;;12.56;72.07;95407.72;5061588;28;20198;-72
2022/04/30 03:15:34;;;;;;;11.68;9.93;;;;;;;12.36;72.34;95399.94;5060426;28;20302;-72
2022/04/30 03:23:41;;;;;;;13.85;10.32;;;;;;;12.04;74.03;95417.16;5011171;28;20954;-73
2022/04/30 03:26:09;;;;;;;13.13;9.80;;;;;;;12.02;74.23;95413.81;5062127;28;21575;-74
2022/04/30 03:28:37;;;;;;;11.45;10.07;;;;;;;12.00;74.13;95420.69;5060008;28;20197;-73
2022/04/30 03:31:03;;;;;;;10.80;9.55;;;;;;;11.99;74.20;95416.47;5060541;28;20198;-74
2022/04/30 03:33:32;;;;;;;11.18;9.40;;;;;;;11.99;74.12;95424.13;5061006;28;20198;-73
2022/04/30 03:35:59;;;;;;;10.32;9.20;;;;;;;12.40;72.86;95424.41;5061073;28;20261;-73
2022/04/30 03:38:26;;;;;;;11.10;8.82;;;;;;;12.35;72.19;95423.75;5066678;28;20202;-73
2022/04/30 03:40:53;;;;;;;20.20;10.18;;;;;;;11.97;73.53;95432.69;5064758;28;20305;-74
2022/04/30 03:43:20;;;;;;;12.35;8.85;;;;;;;11.57;75.13;95432.25;5063216;28;20194;-74
2022/04/30 03:45:48;;;;;;;14.30;10.43;;;;;;;11.31;76.53;95429.66;5064852;28;20214;-73
2022/04/30 03:48:15;;;;;;;15.15;10.57;;;;;;;11.40;76.43;95444.63;5064058;28;20585;-75
2022/04/30 03:50:43;;;;;;;10.15;9.25;;;;;;;11.48;75.87;95446.94;5064303;28;20222;-73
2022/04/30 03:53:10;;;;;;;10.80;9.68;;;;;;;11.68;75.25;95444.59;5063615;28;20256;-74
2022/04/30 03:55:37;;;;;;;11.07;9.40;;;;;;;11.80;74.85;95436.63;5064231;28;20197;-73
2022/04/30 03:58:05;;;;;;;14.30;10.02;;;;;;;12.24;72.96;95424.94;5062947;28;20219;-73
2022/04/30 04:00:32;;;;;;;10.73;9.63;;;;;;;12.50;71.96;95441.06;5065000;28;20190;-73
2022/04/30 04:02:59;;;;;;;10.02;8.98;;;;;;;12.60;71.41;95427.94;5063524;28;20212;-73
2022/04/30 04:05:26;;;;;;;12.90;9.80;;;;;;;12.57;71.46;95434.88;5062567;28;20198;-73
2022/04/30 04:07:54;;;;;;;12.43;10.68;;;;;;;12.77;70.67;95434.16;5063725;28;21596;-73
2022/04/30 04:10:21;;;;;;;13.57;9.00;;;;;;;13.08;69.81;95433.88;5061769;28;20209;-73
2022/04/30 04:12:48;;;;;;;17.40;10.02;;;;;;;13.30;69.18;95432.19;5062877;28;21512;-74
2022/04/30 04:17:59;;;;;;;12.77;10.40;;;;;;;13.22;69.17;95434.19;5063663;28;20255;-73
2022/04/30 04:20:25;;;;;;;14.60;9.77;;;;;;;13.13;69.08;95434.50;5063502;28;20194;-74
2022/04/30 04:22:54;;;;;;;13.52;9.55;;;;;;;13.23;68.73;95436.69;5062662;28;20760;-75
2022/04/30 04:28:06;;;;;;;13.57;10.02;;;;;;;13.32;68.01;95443.19;5061895;28;20290;-73
2022/04/30 04:30:34;;;;;;;12.02;10.63;;;;;;;13.27;68.53;95447.63;5063440;28;20205;-74
2022/04/30 04:33:02;;;;;;;15.90;11.77;;;;;;;13.38;68.46;95453.13;5064657;28;20205;-74
2022/04/30 04:35:29;;;;;;;13.25;10.68;;;;;;;13.50;67.75;95450.13;5063071;28;20206;-73
2022/04/30 04:37:57;;;;;;;12.30;10.85;;;;;;;13.48;67.80;95433.19;5062798;28;20317;-74
2022/04/30 04:40:24;;;;;;;16.67;10.75;;;;;;;13.58;67.64;95437.91;5063569;28;20589;-73
2022/04/30 04:42:51;;;;;;;17.60;10.88;;;;;;;13.75;67.30;95442.34;5062410;28;20206;-74
2022/04/30 04:45:18;;;;;;;12.13;10.40;;;;;;;13.73;67.03;95443.28;5062243;28;20563;-74
2022/04/30 04:47:49;;;;;;;13.35;11.18;;;;;;;13.73;67.44;95438.16;5062566;28;20255;-73
2022/04/30 04:50:16;;;;;;;11.48;10.27;;;;;;;14.30;66.08;95450.31;5062909;28;20278;-74
2022/04/30 04:52:43;;;;;;;11.23;9.55;;;;;;;14.61;64.75;95430.22;5062690;28;20237;-74
2022/04/30 04:55:12;;;;;;;11.05;10.00;;;;;;;14.67;64.81;95447.03;5062922;28;20208;-73
2022/04/30 04:57:39;;;;;;;22.75;11.27;;;;;;;15.30;62.55;95445.91;5062846;28;20300;-74
2022/04/30 05:00:08;;;;;;;16.63;10.80;;;;;;;15.70;61.21;95446.63;5062893;28;20229;-73
2022/04/30 05:02:35;;;;;;;15.40;12.48;;;;;;;15.78;60.83;95446.28;5063320;28;20213;-73
2022/04/30 05:05:02;;;;;;;18.60;13.80;;;;;;;15.88;60.50;95447.47;5063908;28;20591;-74
2022/04/30 05:07:28;;;;;;;23.92;16.67;;;;;;;15.96;60.39;95456.47;5064007;28;20233;-73
2022/04/30 05:09:55;;;;;;;16.73;12.30;;;;;;;16.05;60.12;95454.38;5062635;28;20307;-73
2022/04/30 05:12:23;;;;;;;18.42;13.80;;;;;;;16.04;60.27;95457.84;5064402;28;20233;-74
2022/04/30 05:14:53;;;;;;;16.45;14.73;;;;;;;16.26;59.77;95455.88;5062436;28;20202;-73
2022/04/30 05:17:19;;;;;;;30.67;20.33;;;;;;;16.89;58.37;95456.09;5063246;28;20221;-74
2022/04/30 05:19:46;;;;;;;26.73;16.95;;;;;;;17.65;55.98;95447.72;5063464;28;22130;-73
2022/04/30 05:22:14;;;;;;;18.42;14.38;;;;;;;19.95;50.29;95444.28;5064044;28;20271;-74
2022/04/30 05:24:40;;;;;;;16.80;11.98;;;;;;;22.69;43.61;95437.22;5063400;28;20205;-74
2022/04/30 05:27:08;;;;;;;14.13;12.63;;;;;;;24.19;39.56;95440.13;5063756;28;20668;-74
2022/04/30 05:29:36;;;;;;;27.70;18.70;;;;;;;25.52;37.21;95440.19;5063318;28;20209;-74
2022/04/30 05:32:04;;;;;;;43.50;29.92;;;;;;;25.71;35.96;95437.66;5062197;28;20202;-75
2022/04/30 05:34:30;;;;;;;35.72;26.55;;;;;;;24.11;39.19;95439.91;5063604;28;20912;-73
2022/04/30 05:36:57;;;;;;;21.27;15.45;;;;;;;23.15;41.13;95441.50;5062196;28;20781;-75
2022/04/30 05:39:25;;;;;;;15.80;11.55;;;;;;;23.08;41.30;95441.97;5063627;28;20233;-74
2022/04/30 05:41:52;;;;;;;11.45;10.25;;;;;;;24.30;39.56;95442.69;5063419;28;20875;-74
2022/04/30 05:44:19;;;;;;;11.15;8.35;;;;;;;24.60;37.52;95446.31;5062206;28;20274;-74
2022/04/30 05:46:47;;;;;;;8.95;8.07;;;;;;;23.28;39.80;95442.19;5062055;28;20205;-74
2022/04/30 05:49:13;;;;;;;11.23;9.70;;;;;;;22.35;41.82;95447.50;5063285;28;20837;-75
2022/04/30 05:51:40;;;;;;;9.60;8.80;;;;;;;21.86;42.59;95451.97;5062909;28;21592;-76
2022/04/30 05:54:07;;;;;;;9.77;8.88;;;;;;;20.91;44.37;95458.59;5063084;28;20255;-76
2022/04/30 05:56:35;;;;;;;11.20;10.20;;;;;;;21.31;43.92;95454.09;5061900;28;20239;-75
2022/04/30 05:59:01;;;;;;;9.40;8.52;;;;;;;22.49;42.10;95453.44;5062409;28;20738;-74
2022/04/30 06:01:28;;;;;;;9.23;8.57;;;;;;;23.53;39.63;95449.75;5062203;28;20206;-74
2022/04/30 06:03:56;;;;;;;9.30;8.60;;;;;;;24.26;37.91;95450.84;5063054;28;20209;-75
2022/04/30 06:06:23;;;;;;;9.40;8.63;;;;;;;24.59;37.71;95457.66;5062375;28;20589;-73
2022/04/30 06:08:50;;;;;;;10.30;9.57;;;;;;;24.75;37.28;95452.81;5062667;28;20259;-73
2022/04/30 06:11:17;;;;;;;10.43;9.52;;;;;;;23.41;39.81;95445.50;5063266;28;20205;-74
2022/04/30 06:13:43;;;;;;;10.50;8.57;;;;;;;21.89;41.25;95455.16;5061629;28;20213;-73
2022/04/30 06:16:10;;;;;;;9.70;8.98;;;;;;;21.06;43.54;95459.28;5063903;28;20198;-74
2022/04/30 06:18:37;;;;;;;8.85;8.15;;;;;;;21.46;43.01;95461.75;5062066;28;20229;-73
2022/04/30 06:21:05;;;;;;;9.85;8.90;;;;;;;20.97;44.20;95455.59;5062496;28;20288;-75
2022/04/30 06:23:32;;;;;;;8.68;8.07;;;;;;;21.11;44.43;95461.56;5061967;28;20222;-74
2022/04/30 06:25:58;;;;;;;8.70;8.10;;;;;;;21.80;42.65;95463.56;5062705;28;20229;-74
2022/04/30 06:28:25;;;;;;;8.75;7.95;;;;;;;22.95;40.92;95456.00;5062600;28;20202;-73
2022/04/30 06:30:53;;;;;;;8.50;7.90;;;;;;;23.94;39.03;95453.44;5064130;28;21773;-76
2022/04/30 06:33:19;;;;;;;12.82;8.95;;;;;;;23.79;38.47;95457.25;5063186;28;20215;-74
2022/04/30 06:35:46;;;;;;;8.40;7.75;;;;;;;24.98;36.81;95449.19;5062354;28;20639;-75
2022/04/30 06:38:15;;;;;;;9.30;8.57;;;;;;;22.13;41.06;95457.78;5067230;28;20229;-75
2022/04/30 06:40:42;;;;;;;10.70;9.70;;;;;;;20.26;45.16;95448.28;5079639;28;20228;-75
2022/04/30 06:43:08;;;;;;;10.07;8.95;;;;;;;21.74;43.73;95456.28;5062504;28;20197;-73
2022/04/30 06:45:35;;;;;;;9.80;9.10;;;;;;;23.40;39.53;95451.63;5062160;28;21542;-74
2022/04/30 06:48:02;;;;;;;9.50;8.68;;;;;;;23.10;38.70;95443.63;5064149;28;20198;-73
2022/04/30 06:50:29;;;;;;;9.60;8.80;;;;;;;22.33;40.81;95444.19;5061725;28;20545;-74
2022/04/30 06:58:26;;;;;;;8.48;7.63;;;;;;;23.19;38.72;95455.88;5062971;28;20382;-76
2022/04/30 07:03:55;;;;;;;8.43;7.63;;;;;;;24.03;37.68;95440.53;5002479;28;20710;-77
2022/04/30 07:06:22;;;;;;;8.98;8.15;;;;;;;23.73;37.72;95430.84;5003165;28;20214;-75
2022/04/30 07:08:49;;;;;;;9.23;8.15;;;;;;;24.53;35.84;95445.97;5029679;28;20692;-75
2022/04/30 07:11:17;;;;;;;8.68;7.55;;;;;;;24.30;36.08;95441.84;5064151;28;20639;-78
2022/04/30 07:13:44;;;;;;;8.75;8.13;;;;;;;23.88;37.18;95435.75;5064991;28;20208;-75
2022/04/30 07:16:11;;;;;;;8.93;8.27;;;;;;;23.52;37.32;95427.34;5064498;28;20198;-75
2022/04/30 07:18:38;;;;;;;9.20;7.18;;;;;;;23.05;38.71;95437.03;5066805;28;20234;-75
2022/04/30 07:21:05;;;;;;;8.10;7.30;;;;;;;23.04;38.38;95439.72;5065326;28;20758;-78
2022/04/30 07:23:31;;;;;;;8.15;7.57;;;;;;;23.08;38.54;95438.56;5064120;28;20881;-75
2022/04/30 07:25:58;;;;;;;8.05;7.45;;;;;;;22.47;39.99;95437.16;5065441;28;20229;-75
2022/04/30 07:28:30;;;;;;;9.40;8.75;;;;;;;21.12;41.26;95442.53;5062370;28;20754;-74
2022/04/30 07:30:57;;;;;;;9.75;8.95;;;;;;;20.41;43.49;95441.31;5062515;28;20616;-81
2022/04/30 07:33:24;;;;;;;13.30;10.80;;;;;;;20.26;44.46;95440.53;5066134;28;20205;-83
2022/04/30 07:35:51;;;;;;;11.57;9.70;;;;;;;20.15;44.08;95429.25;5067243;28;20673;-80
2022/04/30 07:38:17;;;;;;;14.43;9.57;;;;;;;20.23;44.84;95437.34;5066333;28;20718;-76
2022/04/30 07:40:45;;;;;;;11.38;10.05;;;;;;;20.56;43.66;95445.44;5063578;28;20266;-81
2022/04/30 07:43:12;;;;;;;10.68;9.80;;;;;;;21.38;42.15;95433.81;5064254;28;20214;-80
2022/04/30 07:45:40;;;;;;;8.93;8.07;;;;;;;21.56;41.82;95431.69;5064471;28;20212;-81
2022/04/30 07:48:07;;;;;;;10.15;9.20;;;;;;;21.40;42.42;95434.53;5063986;28;20198;-79
2022/04/30 07:50:36;;;;;;;12.60;9.35;;;;;;;21.47;41.83;95427.19;5064832;28;20280;-75
2022/04/30 07:53:03;;;;;;;10.95;9.90;;;;;;;21.28;44.11;95417.31;5063611;28;20285;-80
2022/04/30 07:55:30;;;;;;;10.98;9.00;;;;;;;20.68;43.10;95418.81;5063721;28;20229;-78
2022/04/30 07:57:57;;;;;;;10.45;9.55;;;;;;;20.46;43.55;95421.19;5064227;28;20229;-79
2022/04/30 08:00:24;;;;;;;11.82;10.65;;;;;;;20.66;43.05;95428.41;5064487;28;20206;-83
2022/04/30 08:02:55;;;;;;;8.50;7.80;;;;;;;20.95;42.99;95416.09;5065992;28;20198;-83
2022/04/30 08:05:23;;;;;;;9.27;8.52;;;;;;;20.48;43.08;95421.09;5067018;28;20285;-81
2022/04/30 08:07:50;;;;;;;10.23;9.25;;;;;;;19.58;44.76;95420.00;5065241;28;20711;-81
2022/04/30 08:10:18;;;;;;;8.70;7.90;;;;;;;19.93;44.42;95416.94;5065078;28;20198;-80
2022/04/30 08:12:45;;;;;;;8.30;7.75;;;;;;;20.12;44.49;95409.63;5065975;28;20201;-79
2022/04/30 08:15:12;;;;;;;8.07;7.38;;;;;;;19.88;44.42;95417.22;5067401;28;20299;-85
2022/04/30 08:17:39;;;;;;;8.88;7.60;;;;;;;19.84;44.63;95414.94;5069777;28;20311;-84
2022/04/30 08:20:09;;;;;;;8.75;8.05;;;;;;;19.74;45.28;95419.88;5069366;28;20197;-84
2022/04/30 08:22:36;;;;;;;11.07;7.72;;;;;;;19.75;45.22;95416.38;5073777;28;20213;-81
2022/04/30 08:25:03;;;;;;;7.55;6.93;;;;;;;19.05;47.88;95420.75;5074463;28;20198;-84
2022/04/30 08:27:30;;;;;;;9.18;8.38;;;;;;;18.48;48.80;95405.25;5067947;28;20661;-84
2022/04/30 08:29:57;;;;;;;8.65;7.82;;;;;;;18.99;48.02;95414.22;5065268;28;20374;-84
2022/04/30 08:32:24;;;;;;;6.95;6.45;;;;;;;19.34;46.17;95375.94;5065582;28;20222;-87
2022/04/30 08:34:51;;;;;;;5.97;5.57;;;;;;;19.72;46.42;95382.22;5061314;28;20202;-85
2022/04/30 08:37:20;;;;;;;6.75;6.15;;;;;;;19.64;46.23;95406.72;5063524;28;20672;-86
2022/04/30 08:39:48;;;;;;;6.82;6.15;;;;;;;19.96;46.35;95414.16;5064014;28;20210;-84
2022/04/30 08:42:17;;;;;;;6.65;6.18;;;;;;;20.32;45.31;95422.06;5065974;28;20210;-84
2022/04/30 08:44:45;;;;;;;6.82;6.22;;;;;;;20.21;45.27;95410.78;5063394;28;20202;-85
2022/04/30 08:47:11;;;;;;;6.07;5.53;;;;;;;20.51;45.07;95401.06;5064786;28;20747;-83
2022/04/30 08:49:41;;;;;;;6.60;6.10;;;;;;;21.18;44.16;95413.69;5063074;28;20225;-84
2022/04/30 08:52:09;;;;;;;6.57;6.15;;;;;;;20.62;43.97;95405.47;5062654;28;20209;-84
2022/04/30 08:54:37;;;;;;;7.32;6.85;;;;;;;20.58;44.24;95402.28;5063395;28;20202;-83
2022/04/30 08:57:04;;;;;;;7.90;7.30;;;;;;;19.82;45.48;95411.63;5064112;28;20246;-86
2022/04/30 08:59:31;;;;;;;7.97;7.28;;;;;;;19.42;47.11;95403.00;5064604;28;20237;-85
2022/04/30 09:02:00;;;;;;;8.45;6.97;;;;;;;19.21;47.51;95400.00;5064846;28;20225;-83
2022/04/30 09:04:41;;;;;;;7.72;6.65;;;;;;;19.81;46.87;95404.81;5063464;28;20229;-85
2022/04/30 09:07:14;;;;;;;6.15;5.72;;;;;;;19.91;45.81;95405.88;5062545;28;20203;-83
2022/04/30 09:09:42;;;;;;;6.25;5.57;;;;;;;19.64;46.12;95396.41;5065496;28;20248;-76
2022/04/30 09:12:11;;;;;;;64.68;45.50;;;;;;;20.21;46.07;95398.72;5061195;28;20870;-72
2022/04/30 09:14:41;;;;;;;7.75;7.10;;;;;;;20.33;44.13;95392.72;5061020;28;20263;-83
2022/04/30 09:17:09;;;;;;;5.95;5.55;;;;;;;20.45;43.93;95377.41;5063762;28;20193;-81
2022/04/30 09:19:46;;;;;;;5.78;5.43;;;;;;;20.95;43.67;95389.44;5064511;28;20238;-80
2022/04/30 09:22:15;;;;;;;5.97;5.47;;;;;;;20.83;42.78;95396.25;5062925;28;20251;-82
2022/04/30 09:24:48;;;;;;;7.53;5.28;;;;;;;20.48;44.50;95390.09;5059129;28;20213;-83
2022/04/30 09:27:15;;;;;;;8.85;5.53;;;;;;;20.47;43.77;95381.53;5063572;28;20202;-82
2022/04/30 09:29:42;;;;;;;5.53;5.22;;;;;;;20.49;43.48;95396.91;5063625;28;20212;-81
2022/04/30 09:32:09;;;;;;;5.82;5.43;;;;;;;20.71;43.44;95389.38;5064395;28;20193;-82
2022/04/30 09:37:42;;;;;;;4.70;4.40;;;;;;;20.34;43.08;95375.50;5068197;28;20257;-83
2022/04/30 09:40:20;;;;;;;5.80;5.00;;;;;;;20.34;43.98;95378.91;5088391;28;20274;-78
2022/04/30 09:42:48;;;;;;;8.07;4.70;;;;;;;20.34;43.64;95383.22;5066326;28;22142;-81
2022/04/30 09:45:27;;;;;;;4.80;3.72;;;;;;;20.57;42.71;95359.31;5061201;28;20233;-81
2022/04/30 09:47:55;;;;;;;5.35;3.88;;;;;;;20.66;41.93;95383.69;5062986;28;21344;-76
2022/04/30 09:55:54;;;;;;;4.20;3.92;;;;;;;20.88;41.19;95367.53;5060960;28;20618;-81
2022/04/30 09:58:25;;;;;;;4.05;3.75;;;;;;;21.21;40.14;95361.81;5061570;28;20232;-81
2022/04/30 10:00:55;;;;;;;11.77;3.72;;;;;;;21.53;39.43;95365.50;5061972;28;20866;-82
2022/04/30 10:03:25;;;;;;;5.63;3.67;;;;;;;21.56;39.30;95360.09;5060683;28;20299;-80
2022/04/30 10:05:59;;;;;;;3.95;3.75;;;;;;;21.30;39.26;95354.22;5062064;28;20234;-80
2022/04/30 10:08:27;;;;;;;3.45;3.25;;;;;;;20.85;39.50;95353.06;5063251;28;20204;-80
2022/04/30 10:11:04;;;;;;;3.38;3.17;;;;;;;20.78;40.37;95351.88;5063617;28;20212;-83
2022/04/30 10:13:42;;;;;;;3.00;2.80;;;;;;;21.24;39.27;95351.25;5063457;28;20201;-82
2022/04/30 10:16:13;;;;;;;3.83;3.63;;;;;;;21.05;38.91;95347.34;5062907;28;20205;-80
2022/04/30 10:18:43;;;;;;;3.53;3.33;;;;;;;21.53;39.18;95329.28;5061418;28;20237;-83
2022/04/30 10:21:18;;;;;;;38.45;31.27;;;;;;;21.71;37.92;95317.63;5061269;28;20212;-80
2022/04/30 10:23:45;;;;;;;40.45;31.25;;;;;;;21.58;37.65;95332.38;5064117;28;20232;-83
2022/04/30 10:26:14;;;;;;;6.55;6.05;;;;;;;21.54;37.83;95324.94;5061262;28;20778;-82
2022/04/30 10:28:40;;;;;;;5.72;3.55;;;;;;;21.39;38.75;95324.31;5062694;28;20602;-84
2022/04/30 10:31:10;;;;;;;4.53;4.22;;;;;;;21.67;38.16;95326.53;5062279;28;20209;-81
2022/04/30 10:33:48;;;;;;;3.67;3.47;;;;;;;21.05;39.00;95318.91;5061883;28;20201;-87
2022/04/30 10:36:15;;;;;;;4.32;4.03;;;;;;;21.03;39.09;95297.50;5062205;28;20219;-81
2022/04/30 10:38:43;;;;;;;4.65;4.35;;;;;;;21.21;39.41;95323.88;5061956;28;20568;-81
2022/04/30 10:41:10;;;;;;;5.57;4.40;;;;;;;20.99;39.67;95319.38;5063617;28;20202;-85
2022/04/30 10:43:40;;;;;;;11.13;4.43;;;;;;;21.19;39.89;95317.13;5062940;28;20690;-81
2022/04/30 10:46:19;;;;;;;3.78;3.40;;;;;;;21.20;38.99;95305.84;5062120;28;20206;-81
2022/04/30 10:48:46;;;;;;;4.10;3.80;;;;;;;20.93;39.93;95317.19;5062043;28;20209;-84
2022/04/30 10:51:15;;;;;;;4.03;3.83;;;;;;;20.78;40.37;95320.88;5063219;28;21066;-81
2022/04/30 10:53:43;;;;;;;4.25;3.95;;;;;;;21.03;40.80;95309.66;5063577;28;20722;-82
2022/04/30 10:56:10;;;;;;;3.80;3.53;;;;;;;21.19;40.01;95315.38;5062468;28;20214;-81
2022/04/30 10:58:39;;;;;;;43.70;30.15;;;;;;;21.03;39.16;95325.94;5061522;28;20319;-77
2022/04/30 11:01:13;;;;;;;97.43;58.65;;;;;;;20.87;39.81;95321.97;5060769;28;20197;-77
2022/04/30 11:03:42;;;;;;;6.75;6.22;;;;;;;20.75;40.74;95321.09;5060574;28;20201;-81
2022/04/30 11:06:11;;;;;;;5.47;5.00;;;;;;;20.95;40.11;95317.94;5063231;28;20666;-84
2022/04/30 11:08:38;;;;;;;3.80;3.60;;;;;;;20.45;40.51;95321.44;5062207;28;20197;-83
2022/04/30 11:11:05;;;;;;;4.13;3.72;;;;;;;20.24;40.56;95315.94;5061053;28;20198;-81
2022/04/30 11:13:32;;;;;;;4.07;3.63;;;;;;;20.25;40.63;95306.44;5061842;28;20209;-83
2022/04/30 11:16:01;;;;;;;6.28;3.80;;;;;;;20.46;40.14;95293.84;5060647;28;20270;-81
2022/04/30 11:18:28;;;;;;;3.20;3.00;;;;;;;21.03;39.30;95315.59;5062044;28;20236;-83
2022/04/30 11:20:59;;;;;;;3.15;2.95;;;;;;;21.05;38.72;95311.16;5062521;28;20234;-81
2022/04/30 11:23:26;;;;;;;3.45;3.25;;;;;;;21.48;38.29;95305.53;5062484;28;20276;-85
2022/04/30 11:25:53;;;;;;;2.97;2.78;;;;;;;21.26;38.91;95284.78;5062930;28;20742;-82
2022/04/30 11:28:20;;;;;;;3.03;2.83;;;;;;;20.66;39.71;95308.78;5062242;28;20256;-81
2022/04/30 11:30:47;;;;;;;3.47;3.17;;;;;;;20.32;40.97;95302.50;5061911;28;20771;-81
2022/04/30 11:33:15;;;;;;;3.35;3.15;;;;;;;19.90;41.45;95291.56;5060503;28;21969;-82
2022/04/30 11:35:42;;;;;;;3.88;2.90;;;;;;;20.16;41.27;95310.47;5060622;28;20202;-81
2022/04/30 11:38:10;;;;;;;2.90;2.70;;;;;;;20.29;40.63;95305.31;5056800;28;20248;-81
2022/04/30 11:40:42;;;;;;;3.60;3.30;;;;;;;20.30;40.37;95291.44;5059777;28;20214;-82
2022/04/30 11:43:09;;;;;;;3.33;3.03;;;;;;;20.30;40.96;95310.34;5060895;28;20677;-81
2022/04/30 11:45:36;;;;;;;3.05;2.85;;;;;;;19.57;41.64;95294.59;5061293;28;21257;-81
2022/04/30 11:48:03;;;;;;;2.53;2.40;;;;;;;19.69;42.73;95298.97;5060944;28;20685;-83
2022/04/30 11:50:33;;;;;;;2.97;2.78;;;;;;;19.75;42.32;95297.75;5060809;28;20221;-86
2022/04/30 11:53:00;;;;;;;2.97;2.85;;;;;;;20.06;41.54;95306.81;5060602;28;20212;-81
2022/04/30 11:55:29;;;;;;;2.80;2.60;;;;;;;20.34;41.26;95301.47;5060080;28;20268;-80
2022/04/30 11:58:03;;;;;;;3.45;3.20;;;;;;;20.43;40.54;95300.06;5059064;28;20863;-85
2022/04/30 12:00:35;;;;;;;3.40;3.15;;;;;;;20.21;41.04;95282.59;5063862;28;20232;-80
2022/04/30 12:03:01;;;;;;;9.23;3.08;;;;;;;21.02;39.93;95277.81;5063629;28;20866;-82
2022/04/30 12:05:32;;;;;;;2.88;2.47;;;;;;;21.61;38.74;95284.78;5064711;28;20264;-82
2022/04/30 12:08:01;;;;;;;3.10;2.90;;;;;;;21.65;38.69;95263.75;5064970;28;20208;-79
2022/04/30 12:10:28;;;;;;;3.53;3.35;;;;;;;21.66;38.25;95270.56;5065245;28;20895;-79